createdAt,value
2019-02-06T00:01:42.088Z,85.30
2019-02-06T00:04:09.669Z,85.20
2019-02-06T00:06:37.253Z,85.50
2019-02-06T00:09:05.438Z,85.10
2019-02-06T00:11:35.108Z,85.00
2019-02-06T00:14:01.394Z,85.40
2019-02-06T00:16:28.994Z,85.30
2019-02-06T00:18:56.567Z,84.90
2019-02-06T00:21:24.172Z,85.30
2019-02-06T00:23:51.917Z,84.30
2019-02-06T00:26:19.497Z,83.50
2019-02-06T00:28:47.081Z,82.80
2019-02-06T00:31:15.939Z,82.70
2019-02-06T00:33:43.522Z,82.70
2019-02-06T00:36:11.874Z,83.40
2019-02-06T00:38:39.485Z,83.30
2019-02-06T00:41:07.077Z,83.10
2019-02-06T00:43:34.650Z,83.40
2019-02-06T00:46:02.261Z,83.60
2019-02-06T00:48:30.614Z,84.10
2019-02-06T00:50:58.200Z,84.00
2019-02-06T00:53:25.867Z,84.20
2019-02-06T00:55:54.221Z,84.30
2019-02-06T00:58:23.317Z,84.20
2019-02-06T01:00:50.941Z,84.40
2019-02-06T01:03:18.528Z,84.60
2019-02-06T01:05:46.112Z,84.20
2019-02-06T01:08:13.803Z,84.40
2019-02-06T01:10:41.389Z,84.70
2019-02-06T01:13:08.972Z,84.40
2019-02-06T01:15:36.617Z,84.50
2019-02-06T01:18:04.210Z,84.60
2019-02-06T01:20:31.798Z,84.80
2019-02-06T01:23:00.190Z,85.00
2019-02-06T01:25:29.129Z,85.00
2019-02-06T01:27:56.715Z,84.60
2019-02-06T01:30:26.749Z,83.90
2019-02-06T01:32:55.114Z,83.60
2019-02-06T01:35:22.733Z,83.50
2019-02-06T01:37:50.343Z,83.90
2019-02-06T01:40:17.922Z,84.40
2019-02-06T01:42:46.283Z,84.20
2019-02-06T01:45:13.968Z,84.20
2019-02-06T01:47:41.515Z,83.30
2019-02-06T01:50:09.880Z,83.40
2019-02-06T01:52:37.501Z,83.20
2019-02-06T01:55:05.091Z,83.10
2019-02-06T01:57:32.955Z,83.40
2019-02-06T02:00:12.633Z,83.80
2019-02-06T02:02:40.986Z,85.30
2019-02-06T02:05:08.575Z,84.60
2019-02-06T02:07:36.989Z,85.40
2019-02-06T02:10:05.305Z,85.60
2019-02-06T02:12:32.906Z,85.50
2019-02-06T02:15:01.289Z,85.70
2019-02-06T02:17:29.639Z,86.10
2019-02-06T02:19:57.216Z,86.00
2019-02-06T02:22:25.607Z,86.40
2019-02-06T02:24:53.962Z,86.60
2019-02-06T02:27:21.541Z,86.60
2019-02-06T02:29:49.933Z,86.80
2019-02-06T02:32:17.522Z,86.80
2019-02-06T02:34:45.109Z,86.20
2019-02-06T02:37:12.738Z,85.30
2019-02-06T02:39:40.320Z,84.90
2019-02-06T02:42:07.925Z,84.90
2019-02-06T02:44:36.318Z,85.00
2019-02-06T02:47:04.667Z,85.40
2019-02-06T02:49:32.253Z,85.30
2019-02-06T02:52:00.646Z,85.30
2019-02-06T02:54:28.236Z,85.20
2019-02-06T02:56:55.821Z,84.70
2019-02-06T02:59:23.440Z,84.00
2019-02-06T03:01:51.025Z,83.30
2019-02-06T03:04:18.609Z,83.10
2019-02-06T03:06:46.568Z,83.10
2019-02-06T03:09:14.171Z,83.50
2019-02-06T03:11:42.009Z,84.00
2019-02-06T03:14:09.639Z,83.90
2019-02-06T03:16:37.235Z,84.20
2019-02-06T03:19:04.825Z,85.20
2019-02-06T03:21:33.226Z,85.00
2019-02-06T03:24:00.816Z,85.00
2019-02-06T03:26:28.401Z,84.50
2019-02-06T03:28:56.046Z,84.00
2019-02-06T03:31:23.617Z,83.20
2019-02-06T03:33:51.202Z,83.50
2019-02-06T03:36:18.826Z,83.80
2019-02-06T03:38:46.423Z,84.00
2019-02-06T03:41:14.009Z,84.20
2019-02-06T03:43:42.391Z,85.30
2019-02-06T03:46:10.740Z,85.10
2019-02-06T03:48:38.326Z,85.00
2019-02-06T03:51:06.763Z,85.10
2019-02-06T03:53:34.338Z,85.10
2019-02-06T03:56:01.924Z,84.80
2019-02-06T03:58:30.306Z,84.10
2019-02-06T04:00:57.927Z,84.10
2019-02-06T04:03:25.481Z,84.00
2019-02-06T04:05:53.114Z,84.60
2019-02-06T04:08:20.703Z,84.70
2019-02-06T04:10:48.285Z,85.10
2019-02-06T04:13:15.952Z,85.70
2019-02-06T04:15:44.117Z,85.90
2019-02-06T04:18:11.709Z,85.40
2019-02-06T04:20:39.362Z,85.10
2019-02-06T04:23:06.909Z,84.80
2019-02-06T04:25:34.508Z,85.70
2019-02-06T04:28:03.173Z,86.40
2019-02-06T04:30:30.784Z,86.40
2019-02-06T04:32:58.360Z,86.70
2019-02-06T04:35:26.363Z,86.70
2019-02-06T04:37:53.948Z,86.30
2019-02-06T04:40:22.307Z,88.20
2019-02-06T04:42:49.932Z,88.20
2019-02-06T04:45:17.524Z,88.60
2019-02-06T04:47:45.108Z,89.20
2019-02-06T04:50:13.890Z,88.30
2019-02-06T04:52:41.446Z,88.30
2019-02-06T04:55:11.836Z,88.80
2019-02-06T04:57:39.473Z,89.30
2019-02-06T05:00:13.411Z,90.10
2019-02-06T05:02:41.001Z,90.10
2019-02-06T05:05:08.623Z,90.20
2019-02-06T05:07:36.217Z,90.40
2019-02-06T05:10:03.813Z,90.80
2019-02-06T05:12:32.210Z,90.60
2019-02-06T05:14:59.821Z,90.50
2019-02-06T05:17:27.389Z,90.60
2019-02-06T05:19:55.017Z,90.80
2019-02-06T05:22:22.610Z,90.80
2019-02-06T05:24:50.202Z,91.00
2019-02-06T05:27:18.587Z,90.80
2019-02-06T05:29:46.937Z,90.40
2019-02-06T05:32:14.523Z,90.40
2019-02-06T05:34:42.909Z,89.80
2019-02-06T05:37:10.499Z,89.50
2019-02-06T05:39:38.093Z,89.80
2019-02-06T05:42:05.746Z,89.90
2019-02-06T05:44:33.332Z,90.10
2019-02-06T05:47:00.958Z,90.30
2019-02-06T05:49:28.561Z,90.40
2019-02-06T05:51:56.163Z,90.50
2019-02-06T05:54:23.760Z,90.50
2019-02-06T05:56:51.380Z,90.30
2019-02-06T05:59:18.967Z,90.10
2019-02-06T06:01:46.552Z,90.30
2019-02-06T06:04:14.238Z,90.40
2019-02-06T06:06:41.830Z,90.50
2019-02-06T06:09:09.412Z,90.60
2019-02-06T06:11:37.026Z,90.30
2019-02-06T06:14:05.065Z,90.30
2019-02-06T06:16:32.671Z,90.40
2019-02-06T06:19:01.076Z,90.70
2019-02-06T06:21:28.671Z,90.70
2019-02-06T06:23:56.745Z,90.80
2019-02-06T06:26:24.367Z,90.70
2019-02-06T06:28:51.978Z,90.90
2019-02-06T06:31:19.563Z,91.00
2019-02-06T06:33:47.280Z,91.00
2019-02-06T06:36:14.910Z,91.10
2019-02-06T06:38:43.267Z,91.50
2019-02-06T06:41:10.883Z,91.20
2019-02-06T06:43:38.484Z,91.20
2019-02-06T06:46:06.056Z,91.20
2019-02-06T06:48:33.719Z,91.30
2019-02-06T06:51:01.323Z,91.20
2019-02-06T06:53:28.924Z,91.20
2019-02-06T06:55:56.572Z,91.20
2019-02-06T06:58:24.131Z,91.20
2019-02-06T07:00:51.710Z,91.30
2019-02-06T07:03:19.329Z,91.20
2019-02-06T07:05:46.918Z,91.10
2019-02-06T07:08:14.520Z,91.00
2019-02-06T07:10:42.981Z,91.10
2019-02-06T07:13:10.570Z,91.10
2019-02-06T07:15:38.159Z,91.10
2019-02-06T07:18:05.779Z,91.30
2019-02-06T07:20:33.368Z,91.10
2019-02-06T07:23:00.955Z,91.20
2019-02-06T07:25:28.863Z,91.20
2019-02-06T07:27:56.446Z,91.20
2019-02-06T07:30:27.720Z,91.10
2019-02-06T07:32:55.340Z,91.10
2019-02-06T07:35:22.922Z,91.10
2019-02-06T07:37:51.286Z,91.10
2019-02-06T07:40:18.899Z,91.10
2019-02-06T07:42:46.489Z,91.10
2019-02-06T07:45:14.073Z,91.00
2019-02-06T07:47:41.751Z,91.00
2019-02-06T07:50:11.803Z,91.10
2019-02-06T07:52:39.386Z,90.80
2019-02-06T07:55:07.027Z,90.30
2019-02-06T07:57:34.623Z,90.00
2019-02-06T08:00:02.214Z,90.00
2019-02-06T08:02:30.654Z,90.10
2019-02-06T08:04:58.247Z,90.10
2019-02-06T08:07:25.834Z,90.10
2019-02-06T08:09:53.868Z,90.10
2019-02-06T08:12:21.450Z,90.10
2019-02-06T08:14:49.819Z,90.20
2019-02-06T08:17:17.896Z,90.20
2019-02-06T08:19:46.248Z,90.00
2019-02-06T08:22:14.933Z,89.60
2019-02-06T08:24:43.431Z,88.80
2019-02-06T08:27:11.025Z,89.00
2019-02-06T08:29:38.607Z,88.40
2019-02-06T08:32:06.604Z,88.60
2019-02-06T08:34:34.207Z,88.90
2019-02-06T08:37:01.796Z,89.20
2019-02-06T08:39:29.452Z,89.50
2019-02-06T08:41:57.039Z,89.60
2019-02-06T08:44:24.976Z,89.90
2019-02-06T08:46:53.768Z,90.00
2019-02-06T08:49:22.131Z,90.30
2019-02-06T08:51:50.479Z,90.00
2019-02-06T08:54:20.303Z,90.00
2019-02-06T08:56:45.702Z,90.00
2019-02-06T08:59:13.283Z,90.00
2019-02-06T09:01:41.319Z,90.10
2019-02-06T09:04:08.906Z,90.10
2019-02-06T09:06:36.492Z,90.10
2019-02-06T09:09:04.884Z,90.20
2019-02-06T09:11:33.234Z,90.20
2019-02-06T09:14:00.815Z,90.20
2019-02-06T09:16:28.449Z,90.20
2019-02-06T09:18:56.025Z,90.30
2019-02-06T09:21:23.615Z,90.40
2019-02-06T09:23:52.041Z,90.20
2019-02-06T09:26:19.624Z,90.20
2019-02-06T09:28:47.219Z,89.70
2019-02-06T09:31:15.651Z,90.00
2019-02-06T09:33:43.208Z,89.80
2019-02-06T09:36:10.787Z,89.40
2019-02-06T09:38:38.421Z,89.50
2019-02-06T09:41:06.001Z,89.60
2019-02-06T09:43:33.587Z,89.70
2019-02-06T09:46:01.223Z,89.80
2019-02-06T09:48:28.820Z,89.80
2019-02-06T09:50:57.188Z,90.20
2019-02-06T09:53:24.822Z,89.80
2019-02-06T09:55:53.368Z,90.00
2019-02-06T09:58:19.984Z,90.10
2019-02-06T10:00:48.394Z,89.70
2019-02-06T10:03:15.976Z,89.40
2019-02-06T10:05:43.555Z,88.90
2019-02-06T10:08:11.182Z,88.90
2019-02-06T10:10:38.773Z,89.10
2019-02-06T10:13:06.354Z,89.20
2019-02-06T10:15:34.731Z,89.50
2019-02-06T10:18:02.300Z,89.70
2019-02-06T10:20:29.890Z,89.80
2019-02-06T10:22:58.310Z,89.70
2019-02-06T10:25:25.889Z,89.60
2019-02-06T10:27:53.505Z,89.60
2019-02-06T10:30:23.963Z,89.50
2019-02-06T10:32:51.520Z,89.40
2019-02-06T10:35:19.103Z,89.50
2019-02-06T10:37:46.727Z,89.50
2019-02-06T10:40:14.311Z,89.20
2019-02-06T10:42:41.891Z,88.90
2019-02-06T10:45:12.615Z,88.70
2019-02-06T10:47:40.202Z,88.20
2019-02-06T10:50:07.797Z,87.60
2019-02-06T10:52:36.192Z,86.70
2019-02-06T10:55:03.772Z,87.40
2019-02-06T10:57:31.353Z,85.90
2019-02-06T10:59:58.975Z,85.20
2019-02-06T11:02:26.551Z,84.70
2019-02-06T11:04:54.136Z,84.30
2019-02-06T11:07:21.758Z,83.90
2019-02-06T11:09:49.352Z,83.70
2019-02-06T11:12:16.939Z,83.20
2019-02-06T11:14:45.124Z,81.90
2019-02-06T11:17:12.708Z,81.30
2019-02-06T11:19:43.022Z,80.40
2019-02-06T11:22:08.404Z,79.80
2019-02-06T11:24:36.987Z,79.30
2019-02-06T11:27:04.567Z,79.30
2019-02-06T11:29:32.626Z,79.30
2019-02-06T11:32:00.199Z,79.00
2019-02-06T11:34:27.788Z,78.90
2019-02-06T11:36:55.417Z,78.50
2019-02-06T11:39:23.012Z,78.40
2019-02-06T11:41:51.362Z,78.10
2019-02-06T11:44:19.739Z,78.10
2019-02-06T11:46:47.317Z,77.50
2019-02-06T11:49:15.667Z,75.90
2019-02-06T11:51:43.828Z,75.90
2019-02-06T11:54:11.698Z,75.50
2019-02-06T11:56:39.283Z,75.70
2019-02-06T11:59:07.447Z,75.80
2019-02-06T12:01:35.032Z,76.00
2019-02-06T12:04:02.606Z,76.30
2019-02-06T12:06:31.002Z,75.90
2019-02-06T12:08:58.581Z,75.90
2019-02-06T12:11:26.150Z,76.10
2019-02-06T12:13:54.047Z,76.40
2019-02-06T12:16:21.793Z,76.70
2019-02-06T12:18:49.210Z,77.20
2019-02-06T12:21:18.166Z,77.60
2019-02-06T12:23:45.039Z,78.00
2019-02-06T12:26:13.387Z,79.10
2019-02-06T12:28:41.074Z,79.10
2019-02-06T12:31:09.419Z,81.70
2019-02-06T12:33:37.003Z,80.90
2019-02-06T12:36:04.628Z,80.60
2019-02-06T12:38:32.195Z,81.00
2019-02-06T12:40:59.774Z,81.30
2019-02-06T12:43:27.398Z,81.80
2019-02-06T12:45:54.974Z,82.30
2019-02-06T12:48:22.548Z,82.60
2019-02-06T12:50:50.201Z,82.90
2019-02-06T12:53:17.777Z,83.10
2019-02-06T12:55:45.351Z,83.30
2019-02-06T12:58:13.019Z,83.60
2019-02-06T13:00:43.475Z,83.80
2019-02-06T13:03:11.839Z,84.40
2019-02-06T13:05:40.129Z,84.30
2019-02-06T13:08:08.479Z,84.50
2019-02-06T13:10:36.059Z,84.50
2019-02-06T13:13:04.473Z,84.60
2019-02-06T13:15:32.798Z,84.80
2019-02-06T13:18:00.367Z,84.70
2019-02-06T13:20:28.043Z,84.60
2019-02-06T13:22:55.978Z,84.90
2019-02-06T13:25:23.550Z,84.20
2019-02-06T13:27:51.169Z,84.00
2019-02-06T13:30:18.751Z,83.90
2019-02-06T13:32:46.323Z,83.90
2019-02-06T13:35:14.474Z,84.20
2019-02-06T13:37:42.050Z,84.70
2019-02-06T13:40:09.626Z,84.30
2019-02-06T13:42:37.258Z,84.20
2019-02-06T13:45:07.546Z,84.00
2019-02-06T13:47:35.885Z,83.70
2019-02-06T13:50:04.086Z,84.30
2019-02-06T13:52:31.667Z,84.40
2019-02-06T13:55:00.012Z,84.40
2019-02-06T13:57:33.804Z,84.40
2019-02-06T13:59:55.667Z,84.30
2019-02-06T14:02:23.251Z,84.50
2019-02-06T14:04:51.637Z,84.30
2019-02-06T14:07:19.978Z,84.20
2019-02-06T14:09:47.555Z,84.20
2019-02-06T14:12:15.223Z,84.20
2019-02-06T14:14:42.800Z,84.20
2019-02-06T14:17:11.146Z,83.50
2019-02-06T14:19:38.779Z,83.50
2019-02-06T14:22:06.351Z,83.70
2019-02-06T14:24:33.940Z,84.30
2019-02-06T14:27:01.602Z,83.70
2019-02-06T14:30:06.003Z,83.70
2019-02-06T14:32:54.472Z,83.80
2019-02-06T14:35:27.915Z,83.20
2019-02-06T14:38:16.546Z,83.30
2019-02-06T14:40:44.893Z,83.90
2019-02-06T14:43:12.477Z,83.80
2019-02-06T14:45:42.827Z,84.20
2019-02-06T14:48:19.665Z,84.50
2019-02-06T14:50:52.902Z,84.50
2019-02-06T14:53:20.917Z,84.60
2019-02-06T14:56:25.522Z,84.50
2019-02-06T14:59:18.166Z,84.60
2019-02-06T15:01:45.813Z,84.60
2019-02-06T15:04:38.450Z,84.80
2019-02-06T15:07:09.450Z,84.80
2019-02-06T15:09:40.073Z,84.80
2019-02-06T15:12:16.362Z,85.50
2019-02-06T15:14:55.411Z,84.70
2019-02-06T15:17:32.147Z,84.70
2019-02-06T15:20:14.670Z,84.90
2019-02-06T15:23:09.855Z,84.80
2019-02-06T15:25:55.946Z,84.90
2019-02-06T15:28:35.654Z,84.90
2019-02-06T15:31:15.712Z,85.30
2019-02-06T15:33:44.099Z,84.90
2019-02-06T15:36:24.631Z,84.60
2019-02-06T15:39:09.937Z,84.60
2019-02-06T15:41:47.265Z,84.30
2019-02-06T15:44:24.095Z,84.40
2019-02-06T15:46:51.646Z,84.40
2019-02-06T15:49:52.302Z,84.40
2019-02-06T15:52:26.350Z,84.00
2019-02-06T15:54:53.927Z,84.00
2019-02-06T15:57:24.355Z,84.50
2019-02-06T16:00:12.714Z,84.50
2019-02-06T16:02:52.594Z,84.50
2019-02-06T16:05:22.856Z,84.60
2019-02-06T16:07:52.914Z,84.70
2019-02-06T16:10:41.869Z,85.10
2019-02-06T16:13:33.632Z,84.50
2019-02-06T16:16:22.739Z,84.60
2019-02-06T16:18:50.315Z,84.80
2019-02-06T16:21:20.645Z,85.10
2019-02-06T16:23:48.266Z,85.20
2019-02-06T16:26:28.043Z,85.40
2019-02-06T16:28:58.401Z,85.30
2019-02-06T16:31:41.288Z,85.50
2019-02-06T16:34:17.401Z,85.30
2019-02-06T16:37:15.119Z,85.30
2019-02-06T16:39:45.539Z,85.50
2019-02-06T16:42:33.648Z,85.60
2019-02-06T16:45:19.613Z,84.90
2019-02-06T16:47:52.535Z,84.10
2019-02-06T16:50:29.600Z,84.80
2019-02-06T16:53:27.874Z,84.70
2019-02-06T16:56:06.874Z,84.20
2019-02-06T16:58:35.087Z,84.40
2019-02-06T17:01:29.683Z,83.70
2019-02-06T17:03:57.666Z,84.00
2019-02-06T17:06:33.701Z,84.30
2019-02-06T17:09:28.899Z,84.60
2019-02-06T17:12:17.316Z,84.80
2019-02-06T17:14:50.222Z,85.00
2019-02-06T17:17:20.929Z,84.40
2019-02-06T17:19:51.243Z,84.50
2019-02-06T17:22:51.903Z,84.70
2019-02-06T17:25:32.852Z,84.90
2019-02-06T17:28:06.170Z,85.30
2019-02-06T17:30:51.344Z,84.70
2019-02-06T17:33:30.550Z,84.70
2019-02-06T17:36:16.904Z,85.80
2019-02-06T17:39:05.787Z,85.00
2019-02-06T17:41:33.377Z,85.10
2019-02-06T17:44:07.076Z,85.40
2019-02-06T17:46:53.465Z,85.40
2019-02-06T17:49:45.661Z,85.70
2019-02-06T17:52:40.828Z,85.70
2019-02-06T17:55:20.773Z,85.70
2019-02-06T17:57:48.382Z,85.30
2019-02-06T18:00:31.171Z,85.20
2019-02-06T18:02:58.791Z,85.30
2019-02-06T18:05:26.393Z,85.40
2019-02-06T18:07:59.839Z,85.40
2019-02-06T18:10:27.575Z,84.80
2019-02-06T18:12:55.107Z,84.20
2019-02-06T18:15:23.041Z,84.20
2019-02-06T18:18:02.866Z,84.40
2019-02-06T18:20:20.831Z,85.10
2019-02-06T18:22:48.461Z,85.00
2019-02-06T18:25:17.024Z,84.60
2019-02-06T18:27:48.321Z,85.00
2019-02-06T18:30:15.950Z,85.00
2019-02-06T18:32:43.587Z,85.20
2019-02-06T18:35:11.134Z,85.50
2019-02-06T18:37:43.357Z,85.80
2019-02-06T18:40:07.806Z,85.90
2019-02-06T18:42:37.217Z,86.20
2019-02-06T18:45:04.113Z,86.10
2019-02-06T18:47:31.737Z,86.20
2019-02-06T18:50:00.143Z,86.70
2019-02-06T18:52:27.679Z,86.60
2019-02-06T18:54:55.324Z,86.70
2019-02-06T18:57:23.677Z,86.70
2019-02-06T18:59:51.295Z,86.70
2019-02-06T19:02:18.918Z,87.50
2019-02-06T19:04:46.482Z,87.00
2019-02-06T19:07:14.080Z,87.20
2019-02-06T19:09:42.206Z,86.60
2019-02-06T19:12:10.172Z,86.40
2019-02-06T19:14:37.784Z,86.50
2019-02-06T19:17:05.428Z,86.50
2019-02-06T19:19:33.023Z,85.90
2019-02-06T19:22:00.642Z,85.20
2019-02-06T19:24:28.607Z,85.30
2019-02-06T19:26:56.187Z,85.30
2019-02-06T19:29:24.542Z,86.10
2019-02-06T19:31:52.200Z,86.10
2019-02-06T19:34:19.779Z,85.60
2019-02-06T19:36:47.373Z,85.50
2019-02-06T19:39:16.144Z,85.10
2019-02-06T19:41:43.737Z,84.80
2019-02-06T19:44:11.584Z,84.70
2019-02-06T19:46:39.223Z,85.10
2019-02-06T19:49:07.585Z,86.00
2019-02-06T19:51:35.200Z,85.90
2019-02-06T19:54:02.875Z,86.30
2019-02-06T19:56:30.457Z,87.10
2019-02-06T19:58:58.071Z,86.60
2019-02-06T20:01:25.736Z,86.70
2019-02-06T20:03:53.384Z,86.80
2019-02-06T20:06:29.627Z,87.00
2019-02-06T20:08:57.150Z,87.30
2019-02-06T20:11:24.745Z,87.60
2019-02-06T20:13:52.420Z,88.00
2019-02-06T20:16:20.474Z,87.40
2019-02-06T20:18:48.160Z,87.50
2019-02-06T20:21:16.620Z,87.60
2019-02-06T20:23:44.201Z,87.70
2019-02-06T20:26:11.791Z,87.90
2019-02-06T20:28:39.516Z,88.00
2019-02-06T20:31:07.076Z,88.10
2019-02-06T20:33:34.669Z,87.90
2019-02-06T20:36:03.534Z,86.90
2019-02-06T20:38:31.129Z,86.10
2019-02-06T20:40:59.498Z,83.50
2019-02-06T20:43:27.170Z,83.50
2019-02-06T20:45:54.723Z,82.90
2019-02-06T20:48:23.074Z,82.50
2019-02-06T20:50:51.564Z,82.50
2019-02-06T20:53:18.422Z,82.40
2019-02-06T20:55:46.548Z,82.00
2019-02-06T20:58:14.141Z,81.50
2019-02-06T21:00:41.798Z,81.20
2019-02-06T21:03:10.146Z,80.40
2019-02-06T21:05:39.185Z,80.00
2019-02-06T21:08:06.774Z,79.90
2019-02-06T21:10:35.727Z,78.10
2019-02-06T21:13:03.394Z,78.00
2019-02-06T21:15:32.775Z,77.40
2019-02-06T21:17:58.534Z,77.10
2019-02-06T21:20:27.023Z,76.70
2019-02-06T21:22:54.600Z,76.30
2019-02-06T21:25:22.945Z,75.30
2019-02-06T21:27:50.579Z,75.30
2019-02-06T21:30:18.155Z,75.10
2019-02-06T21:32:45.747Z,75.10
2019-02-06T21:35:14.183Z,74.40
2019-02-06T21:37:41.765Z,74.40
2019-02-06T21:40:12.435Z,74.00
2019-02-06T21:42:40.823Z,73.70
2019-02-06T21:45:09.183Z,73.70
2019-02-06T21:47:36.772Z,73.60
2019-02-06T21:50:04.394Z,73.50
2019-02-06T21:52:31.972Z,73.30
2019-02-06T21:55:00.440Z,73.30
2019-02-06T21:57:27.995Z,73.30
2019-02-06T21:59:55.576Z,72.90
2019-02-06T22:02:23.943Z,73.00
2019-02-06T22:04:51.583Z,73.00
2019-02-06T22:07:19.165Z,73.10
2019-02-06T22:09:46.759Z,72.70
2019-02-06T22:12:15.208Z,72.70
2019-02-06T22:14:42.787Z,72.60
2019-02-06T22:17:10.362Z,72.80
2019-02-06T22:19:38.747Z,72.20
2019-02-06T22:22:06.387Z,72.20
2019-02-06T22:24:33.957Z,72.10
2019-02-06T22:27:01.583Z,72.30
2019-02-06T22:29:29.164Z,72.50
2019-02-06T22:31:56.772Z,72.60
2019-02-06T22:34:24.386Z,72.70
2019-02-06T22:36:51.971Z,72.20
2019-02-06T22:39:20.320Z,71.60
2019-02-06T22:41:47.939Z,71.60
2019-02-06T22:44:15.533Z,71.70
2019-02-06T22:46:43.275Z,71.90
2019-02-06T22:49:11.648Z,72.30
2019-02-06T22:51:39.542Z,72.30
2019-02-06T22:54:07.127Z,72.50
2019-02-06T22:56:34.754Z,72.50
2019-02-06T22:59:02.345Z,72.40
2019-02-06T23:01:29.933Z,72.20
2019-02-06T23:03:58.307Z,71.90
2019-02-06T23:06:26.654Z,71.60
2019-02-06T23:08:54.245Z,71.60
2019-02-06T23:11:22.997Z,71.80
2019-02-06T23:13:50.575Z,71.70
2019-02-06T23:16:18.163Z,71.90
2019-02-06T23:18:47.444Z,72.00
2019-02-06T23:21:15.026Z,71.90
2019-02-06T23:23:45.635Z,71.90
2019-02-06T23:26:13.243Z,71.80
2019-02-06T23:28:41.683Z,71.90
2019-02-06T23:31:09.273Z,72.00
2019-02-06T23:33:37.656Z,72.20
2019-02-06T23:36:14.344Z,71.70
2019-02-06T23:38:41.925Z,71.70
2019-02-06T23:41:09.544Z,71.70
2019-02-06T23:43:37.912Z,71.60
2019-02-06T23:46:05.635Z,71.50
2019-02-06T23:48:33.245Z,71.60
2019-02-06T23:51:01.604Z,71.80
2019-02-06T23:53:29.190Z,71.80
2019-02-06T23:55:56.971Z,71.50
2019-02-06T23:58:25.322Z,71.50
